Bagley, Minnesota
Current Conditions -  °F | °C
As of 1:15 PM on Thursday 30 Oct 2014 (Local Time) from KFSE Reporting Station
Overcast Overcast  
Wind Chill: 25°   Ceiling: 1900
Heat Index: 36°   Visibility: 10mi
Dew Point: 30°   Wind: 17mph
Humidity: 81%   Direction: 340°NNW
Pressure: 30.24"   Gusts: 23mph
Location:  47.52°N, 95.4°W
Report Text: KFSE 301815Z AUTO 34015G20KT 10SM BKN019 OVC026 02/M01 A3024 RMK AO2
Loading
Personal Weather Stations






























Interactive Weather Map
Tropical Storm Tracking
New forecast layout! Learn more

10-Day Weather Forecast

Advertisements
Track Severe Weather on mobile